createdAt,value
2023-05-06T00:02:26.368Z,4.60
2023-05-06T00:04:53.666Z,4.70
2023-05-06T00:07:21.423Z,5.00
2023-05-06T00:09:48.746Z,4.00
2023-05-06T00:12:16.344Z,5.20
2023-05-06T00:14:43.367Z,5.20
2023-05-06T00:17:10.824Z,4.30
2023-05-06T00:19:38.939Z,4.90
2023-05-06T00:22:06.018Z,4.70
2023-05-06T00:24:33.080Z,4.70
2023-05-06T00:27:00.183Z,5.10
2023-05-06T00:29:27.205Z,4.50
2023-05-06T00:31:54.263Z,4.40
2023-05-06T00:34:21.310Z,4.60
2023-05-06T00:36:48.426Z,4.70
2023-05-06T00:39:16.468Z,4.80
2023-05-06T00:41:43.498Z,4.40
2023-05-06T00:44:10.772Z,4.70
2023-05-06T00:46:38.249Z,4.70
2023-05-06T00:49:05.651Z,5.00
2023-05-06T00:51:32.751Z,5.10
2023-05-06T00:53:59.783Z,4.70
2023-05-06T00:56:27.107Z,5.10
2023-05-06T00:58:54.521Z,4.40
2023-05-06T01:01:23.028Z,4.50
2023-05-06T01:03:50.164Z,4.40
2023-05-06T01:06:46.992Z,4.50
2023-05-06T01:09:29.918Z,4.80
2023-05-06T01:12:19.840Z,4.30
2023-05-06T01:15:16.786Z,4.60
2023-05-06T01:17:46.065Z,3.90
2023-05-06T01:20:13.338Z,4.60
2023-05-06T01:22:40.377Z,4.20
2023-05-06T01:25:08.293Z,4.20
2023-05-06T01:27:35.566Z,4.20
2023-05-06T01:30:05.032Z,4.80
2023-05-06T01:32:50.257Z,4.30
2023-05-06T01:35:35.776Z,4.20
2023-05-06T01:38:47.940Z,4.20
2023-05-06T01:41:16.552Z,4.70
2023-05-06T01:43:44.690Z,4.20
2023-05-06T01:46:13.770Z,4.10
2023-05-06T01:48:40.778Z,3.60
2023-05-06T01:51:07.794Z,4.40
2023-05-06T01:53:34.798Z,4.30
2023-05-06T01:56:01.981Z,3.90
2023-05-06T01:58:28.948Z,3.90
2023-05-06T02:00:55.946Z,3.20
2023-05-06T02:03:23.001Z,3.60
2023-05-06T02:05:50.446Z,3.90
2023-05-06T02:08:17.796Z,4.60
2023-05-06T02:10:45.927Z,4.00
2023-05-06T02:13:13.128Z,3.80
2023-05-06T02:15:40.194Z,3.80
2023-05-06T02:18:10.156Z,4.30
2023-05-06T02:20:37.220Z,4.50
2023-05-06T02:23:04.323Z,3.60
2023-05-06T02:25:31.650Z,4.30
2023-05-06T02:27:58.654Z,4.30
2023-05-06T02:30:25.637Z,4.40
2023-05-06T02:32:52.691Z,3.90
2023-05-06T02:35:19.812Z,4.20
2023-05-06T02:37:46.935Z,3.60
2023-05-06T02:40:14.042Z,4.70
2023-05-06T02:42:41.175Z,3.70
2023-05-06T02:45:08.914Z,4.00
2023-05-06T02:47:36.299Z,4.10
2023-05-06T02:50:04.350Z,4.30
2023-05-06T02:52:33.409Z,4.50
2023-05-06T02:55:00.658Z,4.50
2023-05-06T02:57:27.676Z,4.30
2023-05-06T02:59:54.693Z,3.40
2023-05-06T03:02:22.349Z,3.50
2023-05-06T03:04:49.362Z,3.90
2023-05-06T03:07:16.420Z,4.10
2023-05-06T03:09:44.006Z,4.20
2023-05-06T03:12:12.049Z,4.00
2023-05-06T03:14:39.334Z,4.60
2023-05-06T03:17:06.370Z,3.60
2023-05-06T03:19:34.743Z,3.90
2023-05-06T03:22:02.105Z,3.50
2023-05-06T03:24:30.415Z,3.80
2023-05-06T03:26:58.788Z,4.00
2023-05-06T03:29:26.401Z,3.90
2023-05-06T03:31:56.381Z,3.40
2023-05-06T03:34:25.458Z,5.20
2023-05-06T03:36:52.506Z,3.90
2023-05-06T03:39:19.828Z,3.50
2023-05-06T03:41:46.840Z,3.40
2023-05-06T03:44:13.870Z,3.80
2023-05-06T03:46:41.995Z,3.80
2023-05-06T03:49:10.117Z,3.50
2023-05-06T03:51:37.258Z,3.60
2023-05-06T03:54:04.903Z,3.90
2023-05-06T03:56:32.810Z,3.40
2023-05-06T03:58:59.929Z,4.00
2023-05-06T04:01:27.158Z,3.80
2023-05-06T04:03:54.914Z,3.50
2023-05-06T04:06:22.564Z,2.90
2023-05-06T04:08:49.601Z,3.90
2023-05-06T04:11:17.438Z,3.80
2023-05-06T04:13:46.291Z,4.00
2023-05-06T04:16:15.549Z,4.20
2023-05-06T04:18:44.212Z,3.20
2023-05-06T04:21:13.948Z,3.90
2023-05-06T04:23:42.869Z,3.50
2023-05-06T04:26:11.075Z,4.50
2023-05-06T04:28:40.055Z,4.20
2023-05-06T04:31:08.818Z,3.40
2023-05-06T04:33:43.186Z,3.60
2023-05-06T04:38:47.359Z,3.10
2023-05-06T04:41:15.864Z,2.70
2023-05-06T04:43:43.409Z,3.40
2023-05-06T04:46:15.474Z,3.10
2023-05-06T04:48:42.934Z,3.40
2023-05-06T04:51:11.207Z,3.00
2023-05-06T04:53:38.305Z,3.70
2023-05-06T04:56:05.725Z,3.90
2023-05-06T04:58:33.183Z,3.60
2023-05-06T05:01:08.805Z,3.80
2023-05-06T05:03:36.238Z,3.70
2023-05-06T05:06:04.077Z,3.80
2023-05-06T05:08:31.318Z,3.00
2023-05-06T05:10:58.418Z,3.80
2023-05-06T05:13:26.347Z,3.50
2023-05-06T05:15:56.873Z,3.80
2023-05-06T05:18:25.872Z,4.00
2023-05-06T05:20:54.940Z,3.40
2023-05-06T05:23:22.532Z,3.90
2023-05-06T05:25:50.346Z,3.60
2023-05-06T05:28:17.666Z,3.30
2023-05-06T05:30:44.855Z,3.40
2023-05-06T05:33:11.990Z,3.70
2023-05-06T05:35:39.681Z,3.40
2023-05-06T05:38:06.878Z,4.00
2023-05-06T05:40:36.136Z,4.10
2023-05-06T05:43:03.233Z,4.20
2023-05-06T05:45:34.530Z,4.50
2023-05-06T05:48:01.683Z,4.80
2023-05-06T05:50:28.727Z,3.90
2023-05-06T05:52:56.246Z,4.00
2023-05-06T05:55:23.621Z,4.10
2023-05-06T05:57:51.121Z,4.30
2023-05-06T06:00:19.146Z,4.40
2023-05-06T06:02:46.283Z,4.10
2023-05-06T06:05:15.304Z,3.80
2023-05-06T06:07:42.377Z,3.40
2023-05-06T06:10:10.476Z,5.10
2023-05-06T06:12:37.656Z,4.80
2023-05-06T06:15:05.322Z,3.90
2023-05-06T06:17:33.322Z,3.80
2023-05-06T06:20:02.014Z,3.70
2023-05-06T06:22:29.080Z,2.90
2023-05-06T06:24:56.397Z,3.10
2023-05-06T06:27:23.583Z,3.30
2023-05-06T06:29:51.136Z,3.40
2023-05-06T06:32:18.238Z,3.20
2023-05-06T06:34:45.377Z,3.00
2023-05-06T06:37:12.518Z,3.20
2023-05-06T06:39:39.547Z,3.10
2023-05-06T06:42:07.200Z,4.00
2023-05-06T06:44:46.108Z,3.70
2023-05-06T06:47:13.167Z,2.80
2023-05-06T06:49:40.625Z,2.80
2023-05-06T06:52:07.685Z,2.60
2023-05-06T06:54:34.731Z,2.60
2023-05-06T06:57:01.778Z,3.00
2023-05-06T06:59:29.092Z,2.50
2023-05-06T07:01:56.162Z,2.40
2023-05-06T07:04:25.097Z,2.00
2023-05-06T07:06:52.451Z,2.50
2023-05-06T07:09:19.527Z,2.40
2023-05-06T07:11:46.621Z,2.90
2023-05-06T07:14:13.642Z,3.00
2023-05-06T07:16:40.777Z,3.10
2023-05-06T07:19:07.971Z,2.40
2023-05-06T07:21:35.058Z,2.70
2023-05-06T07:24:02.221Z,2.30
2023-05-06T07:26:29.302Z,2.30
2023-05-06T07:28:56.273Z,2.10
2023-05-06T07:31:23.493Z,2.60
2023-05-06T07:33:50.577Z,2.10
2023-05-06T07:36:17.786Z,2.20
2023-05-06T07:38:45.346Z,1.90
2023-05-06T07:41:12.900Z,1.80
2023-05-06T07:43:39.996Z,2.50
2023-05-06T07:46:07.061Z,2.10
2023-05-06T07:48:34.186Z,2.70
2023-05-06T07:51:01.301Z,2.00
2023-05-06T07:53:28.657Z,2.20
2023-05-06T07:56:01.924Z,2.20
2023-05-06T07:58:30.100Z,1.90
2023-05-06T08:00:57.730Z,2.20
2023-05-06T08:03:24.940Z,2.00
2023-05-06T08:05:52.281Z,1.70
2023-05-06T08:08:19.856Z,2.10
2023-05-06T08:10:46.920Z,1.50
2023-05-06T08:13:13.998Z,2.30
2023-05-06T08:15:41.298Z,1.90
2023-05-06T08:18:20.986Z,1.60
2023-05-06T08:20:49.692Z,1.70
2023-05-06T08:23:16.866Z,1.70
2023-05-06T08:25:43.855Z,1.50
2023-05-06T08:28:10.865Z,1.90
2023-05-06T08:30:37.981Z,1.40
2023-05-06T08:33:05.180Z,1.40
2023-05-06T08:35:32.229Z,1.60
2023-05-06T08:37:59.368Z,2.00
2023-05-06T08:40:26.707Z,1.60
2023-05-06T08:42:53.838Z,1.70
2023-05-06T08:45:20.886Z,1.80
2023-05-06T08:47:48.153Z,2.20
2023-05-06T08:50:15.338Z,2.70
2023-05-06T08:52:42.574Z,2.10
2023-05-06T08:55:10.325Z,7.10
2023-05-06T08:57:37.763Z,3.00
2023-05-06T09:00:05.164Z,3.90
2023-05-06T09:02:32.383Z,2.80
2023-05-06T09:04:59.452Z,2.10
2023-05-06T09:07:26.947Z,2.90
2023-05-06T09:09:54.026Z,2.20
2023-05-06T09:12:21.106Z,3.00
2023-05-06T09:14:50.275Z,2.40
2023-05-06T09:17:24.592Z,1.60
2023-05-06T09:19:53.094Z,1.60
2023-05-06T09:22:27.099Z,1.60
2023-05-06T09:24:57.159Z,1.50
2023-05-06T09:27:25.023Z,1.20
2023-05-06T09:30:03.899Z,1.80
2023-05-06T09:32:31.269Z,1.80
2023-05-06T09:34:58.403Z,1.80
2023-05-06T09:37:28.869Z,1.60
2023-05-06T09:39:57.600Z,1.10
2023-05-06T09:42:28.989Z,1.50
2023-05-06T09:45:02.605Z,1.50
2023-05-06T09:47:33.763Z,2.00
2023-05-06T09:50:01.461Z,1.40
2023-05-06T09:52:29.297Z,1.90
2023-05-06T09:54:56.411Z,2.20
2023-05-06T09:57:23.784Z,1.90
2023-05-06T09:59:52.331Z,2.80
2023-05-06T10:02:20.022Z,1.90
2023-05-06T10:04:48.483Z,2.20
2023-05-06T10:07:16.362Z,1.80
2023-05-06T10:09:43.448Z,1.80
2023-05-06T10:12:10.674Z,1.50
2023-05-06T10:14:37.850Z,1.60
2023-05-06T10:17:09.963Z,1.50
2023-05-06T10:19:37.886Z,1.70
2023-05-06T10:22:33.642Z,1.60
2023-05-06T10:25:39.802Z,1.30
2023-05-06T10:28:08.899Z,1.90
2023-05-06T10:30:44.851Z,1.70
2023-05-06T10:33:12.117Z,1.50
2023-05-06T10:35:42.455Z,1.50
2023-05-06T10:38:15.815Z,2.00
2023-05-06T10:40:43.685Z,1.50
2023-05-06T10:43:27.971Z,2.30
2023-05-06T10:46:11.332Z,1.70
2023-05-06T10:49:05.271Z,1.60
2023-05-06T10:51:33.294Z,1.90
2023-05-06T10:54:07.376Z,2.30
2023-05-06T10:56:39.195Z,1.50
2023-05-06T10:59:10.176Z,1.90
2023-05-06T11:04:12.673Z,2.00
2023-05-06T11:06:53.947Z,1.60
2023-05-06T11:09:24.809Z,1.60
2023-05-06T11:14:38.382Z,1.70
2023-05-06T11:17:09.705Z,1.60
2023-05-06T11:19:37.792Z,1.50
2023-05-06T11:22:06.216Z,1.40
2023-05-06T11:24:41.086Z,1.50
2023-05-06T11:27:08.546Z,1.50
2023-05-06T11:29:36.576Z,1.40
2023-05-06T11:32:07.255Z,1.60
2023-05-06T11:34:35.585Z,1.60
2023-05-06T11:37:06.898Z,1.40
2023-05-06T11:39:39.988Z,1.30
2023-05-06T11:42:08.887Z,2.00
2023-05-06T11:44:37.269Z,1.60
2023-05-06T11:47:08.063Z,1.30
2023-05-06T11:52:09.777Z,1.60
2023-05-06T11:54:39.509Z,1.50
2023-05-06T11:57:06.741Z,1.70
2023-05-06T11:59:35.101Z,1.30
2023-05-06T12:02:03.525Z,1.60
2023-05-06T12:04:37.912Z,1.30
2023-05-06T12:07:06.196Z,1.10
2023-05-06T12:09:34.422Z,1.30
2023-05-06T12:12:02.928Z,1.40
2023-05-06T12:14:30.042Z,1.40
2023-05-06T12:16:57.096Z,1.50
2023-05-06T12:19:24.492Z,1.60
2023-05-06T12:21:51.557Z,1.60
2023-05-06T12:24:27.277Z,1.60
2023-05-06T12:26:55.069Z,1.40
2023-05-06T12:29:22.236Z,2.00
2023-05-06T12:31:49.516Z,1.60
2023-05-06T12:34:18.048Z,2.10
2023-05-06T12:36:46.725Z,2.50
2023-05-06T12:39:14.100Z,4.00
2023-05-06T12:41:45.440Z,2.60
2023-05-06T12:44:35.574Z,1.90
2023-05-06T12:47:09.962Z,1.70
2023-05-06T12:49:53.042Z,1.90
2023-05-06T12:52:21.513Z,2.10
2023-05-06T12:54:48.911Z,2.30
2023-05-06T12:57:16.349Z,1.80
2023-05-06T12:59:43.958Z,1.50
2023-05-06T13:02:11.265Z,2.00
2023-05-06T13:04:38.714Z,1.60
2023-05-06T13:07:06.275Z,2.00
2023-05-06T13:09:33.502Z,1.80
2023-05-06T13:12:01.265Z,1.50
2023-05-06T13:14:28.316Z,1.70
2023-05-06T13:16:55.423Z,2.00
2023-05-06T13:19:32.476Z,2.10
2023-05-06T13:22:01.288Z,3.10
2023-05-06T13:24:29.310Z,2.30
2023-05-06T13:26:57.562Z,1.70
2023-05-06T13:29:26.131Z,1.60
2023-05-06T13:31:53.235Z,1.50
2023-05-06T13:34:22.529Z,1.70
2023-05-06T13:36:50.956Z,1.40
2023-05-06T13:39:18.172Z,1.30
2023-05-06T13:41:50.214Z,1.80
2023-05-06T13:44:19.877Z,1.20
2023-05-06T13:46:47.419Z,7.60
2023-05-06T13:49:14.738Z,1.60
2023-05-06T13:51:41.882Z,1.80
2023-05-06T13:54:08.976Z,1.60
2023-05-06T13:56:36.197Z,1.40
2023-05-06T13:59:03.319Z,1.40
2023-05-06T14:01:30.588Z,1.20
2023-05-06T14:03:57.628Z,1.60
2023-05-06T14:06:30.420Z,1.30
2023-05-06T14:08:58.125Z,2.00
2023-05-06T14:11:25.156Z,0.90
2023-05-06T14:13:52.304Z,1.50
2023-05-06T14:16:19.618Z,1.50
2023-05-06T14:18:46.777Z,1.50
2023-05-06T14:21:13.847Z,1.50
2023-05-06T14:23:40.996Z,1.00
2023-05-06T14:26:08.910Z,1.30
2023-05-06T14:28:36.003Z,1.60
2023-05-06T14:31:03.109Z,1.50
2023-05-06T14:33:30.206Z,1.50
2023-05-06T14:35:58.548Z,1.70
2023-05-06T14:38:27.098Z,1.60
2023-05-06T14:40:54.285Z,1.80
2023-05-06T14:43:22.210Z,2.00
2023-05-06T14:45:49.641Z,1.50
2023-05-06T14:48:17.639Z,1.70
2023-05-06T14:50:45.358Z,1.60
2023-05-06T14:53:12.485Z,1.70
2023-05-06T14:55:40.944Z,1.50
2023-05-06T14:58:09.449Z,2.00
2023-05-06T15:00:36.666Z,1.80
2023-05-06T15:03:04.056Z,1.80
2023-05-06T15:05:31.561Z,2.00
2023-05-06T15:07:58.952Z,1.60
2023-05-06T15:10:26.487Z,1.50
2023-05-06T15:12:53.768Z,2.20
2023-05-06T15:15:21.618Z,2.00
2023-05-06T15:17:52.546Z,1.80
2023-05-06T15:20:20.773Z,1.90
2023-05-06T15:22:48.237Z,2.00
2023-05-06T15:25:33.450Z,1.50
2023-05-06T15:28:02.493Z,2.00
2023-05-06T15:30:29.602Z,1.80
2023-05-06T15:32:56.786Z,1.90
2023-05-06T15:35:24.114Z,2.30
2023-05-06T15:38:00.221Z,2.10
2023-05-06T15:40:27.709Z,2.80
2023-05-06T15:42:55.402Z,3.30
2023-05-06T15:45:23.428Z,3.60
2023-05-06T15:47:54.545Z,7.40
2023-05-06T15:50:33.408Z,4.10
2023-05-06T15:53:02.329Z,2.30
2023-05-06T15:55:30.026Z,4.40
2023-05-06T15:57:59.903Z,3.70
2023-05-06T16:00:29.257Z,11.70
2023-05-06T16:03:00.577Z,6.90
2023-05-06T16:05:29.226Z,5.70
2023-05-06T16:07:57.373Z,4.60
2023-05-06T16:10:24.643Z,4.40
2023-05-06T16:12:51.956Z,3.20
2023-05-06T16:15:40.844Z,4.60
2023-05-06T16:18:10.056Z,3.50
2023-05-06T16:20:38.965Z,3.70
2023-05-06T16:23:07.301Z,3.10
2023-05-06T16:25:34.803Z,2.70
2023-05-06T16:28:02.923Z,2.60
2023-05-06T16:30:30.080Z,2.90
2023-05-06T16:32:59.096Z,2.50
2023-05-06T16:35:26.478Z,2.30
2023-05-06T16:37:56.982Z,2.80
2023-05-06T16:40:24.469Z,2.70
2023-05-06T16:42:55.295Z,3.90
2023-05-06T16:45:22.490Z,3.30
2023-05-06T16:47:50.442Z,3.20
2023-05-06T16:50:17.811Z,3.40
2023-05-06T16:52:46.085Z,3.40
2023-05-06T16:55:14.209Z,2.70
2023-05-06T16:57:44.963Z,2.50
2023-05-06T17:00:16.891Z,3.10
2023-05-06T17:02:49.098Z,2.10
2023-05-06T17:05:17.656Z,2.70
2023-05-06T17:08:06.846Z,2.80
2023-05-06T17:10:37.691Z,3.50
2023-05-06T17:13:06.126Z,2.90
2023-05-06T17:15:35.389Z,2.40
2023-05-06T17:18:06.669Z,2.80
2023-05-06T17:20:51.391Z,3.70
2023-05-06T17:23:22.094Z,2.20
2023-05-06T17:25:49.368Z,2.70
2023-05-06T17:28:18.047Z,2.40
2023-05-06T17:30:46.583Z,2.30
2023-05-06T17:33:18.933Z,2.40
2023-05-06T17:35:48.545Z,2.20
2023-05-06T17:38:17.089Z,2.00
2023-05-06T17:40:45.421Z,1.90
2023-05-06T17:43:12.819Z,2.80
2023-05-06T17:45:41.768Z,2.40
2023-05-06T17:48:09.176Z,2.60
2023-05-06T17:50:36.675Z,2.50
2023-05-06T17:53:03.923Z,2.50
2023-05-06T17:55:33.720Z,2.50
2023-05-06T17:58:01.056Z,2.60
2023-05-06T18:00:28.382Z,2.30
2023-05-06T18:02:55.819Z,2.50
2023-05-06T18:05:24.837Z,2.30
2023-05-06T18:07:53.147Z,2.50
2023-05-06T18:10:20.354Z,2.10
2023-05-06T18:12:48.162Z,2.10
2023-05-06T18:15:17.893Z,2.30
2023-05-06T18:17:46.209Z,2.80
2023-05-06T18:20:13.697Z,2.10
2023-05-06T18:22:43.067Z,2.10
2023-05-06T18:25:11.186Z,2.00
2023-05-06T18:27:39.216Z,2.00
2023-05-06T18:30:07.066Z,2.40
2023-05-06T18:32:35.044Z,2.30
2023-05-06T18:35:02.359Z,2.20
2023-05-06T18:37:30.228Z,2.00
2023-05-06T18:39:58.269Z,2.20
2023-05-06T18:42:28.032Z,2.10
2023-05-06T18:44:56.605Z,1.90
2023-05-06T18:47:26.012Z,2.40
2023-05-06T18:49:57.765Z,2.20
2023-05-06T18:52:25.066Z,2.70
2023-05-06T18:54:53.319Z,2.50
2023-05-06T18:57:20.546Z,2.30
2023-05-06T18:59:47.868Z,2.60
2023-05-06T19:02:18.269Z,2.40
2023-05-06T19:04:45.508Z,2.60
2023-05-06T19:07:14.345Z,2.20
2023-05-06T19:09:43.646Z,2.50
2023-05-06T19:12:10.725Z,2.10
2023-05-06T19:14:38.207Z,2.00
2023-05-06T19:17:07.406Z,2.20
2023-05-06T19:19:34.761Z,2.20
2023-05-06T19:22:02.421Z,1.90
2023-05-06T19:24:30.442Z,2.80
2023-05-06T19:26:58.393Z,1.70
2023-05-06T19:29:25.487Z,2.10
2023-05-06T19:31:52.754Z,2.90
2023-05-06T19:34:20.557Z,2.20
2023-05-06T19:36:47.923Z,2.70
2023-05-06T19:39:16.573Z,1.90
2023-05-06T19:41:44.341Z,2.10
2023-05-06T19:44:11.628Z,2.20
2023-05-06T19:46:38.833Z,2.10
2023-05-06T19:49:07.226Z,1.80
2023-05-06T19:51:35.177Z,2.20
2023-05-06T19:54:02.425Z,1.80
2023-05-06T19:56:30.208Z,2.20
2023-05-06T19:59:04.349Z,2.00
2023-05-06T20:01:35.532Z,2.10
2023-05-06T20:04:02.731Z,2.00
2023-05-06T20:06:31.374Z,1.90
2023-05-06T20:08:58.634Z,2.10
2023-05-06T20:11:28.321Z,2.30
2023-05-06T20:13:56.134Z,2.10
2023-05-06T20:16:23.303Z,2.30
2023-05-06T20:18:51.731Z,1.90
2023-05-06T20:21:19.042Z,1.40
2023-05-06T20:23:48.905Z,2.10
2023-05-06T20:26:16.462Z,1.70
2023-05-06T20:28:43.943Z,2.20
2023-05-06T20:31:12.981Z,1.90
2023-05-06T20:33:40.101Z,2.00
2023-05-06T20:36:07.303Z,2.10
2023-05-06T20:38:35.458Z,2.20
2023-05-06T20:41:03.182Z,2.00
2023-05-06T20:43:30.757Z,5.50
2023-05-06T20:45:57.973Z,1.90
2023-05-06T20:48:27.181Z,1.80
2023-05-06T20:50:55.162Z,1.70
2023-05-06T20:53:23.290Z,2.00
2023-05-06T20:55:50.609Z,2.10
2023-05-06T20:58:17.802Z,1.80
2023-05-06T21:00:45.975Z,1.80
2023-05-06T21:03:13.612Z,2.00
2023-05-06T21:05:40.838Z,1.40
2023-05-06T21:08:09.251Z,11.20
2023-05-06T21:10:36.957Z,1.80
2023-05-06T21:13:05.046Z,1.80
2023-05-06T21:15:33.876Z,1.70
2023-05-06T21:18:01.095Z,1.70
2023-05-06T21:20:28.259Z,1.90
2023-05-06T21:22:55.624Z,2.10
2023-05-06T21:25:22.873Z,2.10
2023-05-06T21:27:50.373Z,1.80
2023-05-06T21:30:17.584Z,2.10
2023-05-06T21:32:44.857Z,2.10
2023-05-06T21:35:12.505Z,1.70
2023-05-06T21:37:39.894Z,1.90
2023-05-06T21:40:07.992Z,1.80
2023-05-06T21:42:35.065Z,1.80
2023-05-06T21:45:02.527Z,1.60
2023-05-06T21:47:29.785Z,1.90
2023-05-06T21:49:56.836Z,1.90
2023-05-06T21:52:24.869Z,1.30
2023-05-06T21:54:52.022Z,1.60
2023-05-06T21:57:19.323Z,1.60
2023-05-06T21:59:46.438Z,1.60
2023-05-06T22:02:13.730Z,2.10
2023-05-06T22:04:41.129Z,2.00
2023-05-06T22:07:08.155Z,2.00
2023-05-06T22:09:35.978Z,2.10
2023-05-06T22:12:06.886Z,2.10
2023-05-06T22:14:41.125Z,1.90
2023-05-06T22:17:10.823Z,1.80
2023-05-06T22:19:38.616Z,4.70
2023-05-06T22:22:06.662Z,1.90
2023-05-06T22:24:33.778Z,2.70
2023-05-06T22:27:01.835Z,2.30
2023-05-06T22:29:28.901Z,2.00
2023-05-06T22:31:55.996Z,1.90
2023-05-06T22:34:23.036Z,2.40
2023-05-06T22:36:50.052Z,2.40
2023-05-06T22:39:17.206Z,1.80
2023-05-06T22:41:44.871Z,2.30
2023-05-06T22:44:13.909Z,2.50
2023-05-06T22:46:41.103Z,2.20
2023-05-06T22:49:08.246Z,1.90
2023-05-06T22:51:35.369Z,2.20
2023-05-06T22:54:02.542Z,2.20
2023-05-06T22:56:29.607Z,2.40
2023-05-06T22:58:56.733Z,2.40
2023-05-06T23:01:25.399Z,2.40
2023-05-06T23:03:52.798Z,2.50
2023-05-06T23:06:19.911Z,2.20
2023-05-06T23:08:48.092Z,3.80
2023-05-06T23:11:15.165Z,2.60
2023-05-06T23:13:43.114Z,3.20
2023-05-06T23:16:10.474Z,2.80
2023-05-06T23:18:37.970Z,2.70
2023-05-06T23:21:05.240Z,2.70
2023-05-06T23:23:33.144Z,2.60
2023-05-06T23:26:00.281Z,2.30
2023-05-06T23:28:28.100Z,2.60
2023-05-06T23:30:55.274Z,3.00
2023-05-06T23:33:22.696Z,2.60
2023-05-06T23:35:49.838Z,2.80
2023-05-06T23:38:16.952Z,2.60
2023-05-06T23:40:44.398Z,2.80
2023-05-06T23:43:11.665Z,2.60
2023-05-06T23:45:38.833Z,2.70
2023-05-06T23:48:06.264Z,2.90
2023-05-06T23:50:33.421Z,2.10
2023-05-06T23:53:00.732Z,2.70
2023-05-06T23:55:28.110Z,2.60
2023-05-06T23:57:55.158Z,2.50
